createdAt,value
2023-02-22T01:11:48.972Z,100300
2023-02-22T01:59:49.873Z,100266
2023-02-22T02:36:08.488Z,100238
2023-02-22T02:41:59.146Z,100237
2023-02-22T02:47:49.301Z,100239
2023-02-22T02:53:39.483Z,100238
2023-02-22T02:59:30.093Z,100241
2023-02-22T03:05:20.987Z,100241
2023-02-22T03:11:11.564Z,100238
2023-02-22T03:17:01.569Z,100232
2023-02-22T03:22:50.849Z,100235
2023-02-22T03:28:40.585Z,100234
2023-02-22T03:34:30.640Z,100236
2023-02-22T03:40:20.941Z,100237
2023-02-22T03:46:11.123Z,100235
2023-02-22T03:52:02.058Z,100237
2023-02-22T03:57:52.215Z,100227
2023-02-22T04:03:42.880Z,100238
2023-02-22T04:09:33.448Z,100232
2023-02-22T04:15:23.314Z,100227
2023-02-22T04:21:14.156Z,100225
2023-02-22T04:27:03.860Z,100221
2023-02-22T04:32:52.930Z,100213
2023-02-22T04:38:41.632Z,100205
2023-02-22T04:44:30.160Z,100206
2023-02-22T04:50:18.549Z,100204
2023-02-22T04:56:08.236Z,100209
2023-02-22T05:01:59.062Z,100204
2023-02-22T05:07:49.403Z,100203
2023-02-22T05:13:38.113Z,100200
2023-02-22T05:19:27.355Z,100200
2023-02-22T05:25:20.358Z,100197
2023-02-22T05:31:12.521Z,100194
2023-02-22T05:37:04.943Z,100195
2023-02-22T05:42:56.424Z,100197
2023-02-22T05:48:51.468Z,100191
2023-02-22T05:54:44.699Z,100185
2023-02-22T06:00:36.005Z,100169
2023-02-22T06:06:28.675Z,100174
2023-02-22T06:12:20.575Z,100175
2023-02-22T06:18:12.232Z,100172
2023-02-22T06:24:03.630Z,100165
2023-02-22T06:29:55.580Z,100159
2023-02-22T06:35:49.086Z,100154
2023-02-22T06:41:40.831Z,100159
2023-02-22T06:47:32.583Z,100160
2023-02-22T06:53:23.717Z,100158
2023-02-22T06:59:17.282Z,100161
2023-02-22T07:05:08.670Z,100170
2023-02-22T07:11:02.873Z,100174
2023-02-22T07:16:52.147Z,100174
2023-02-22T07:22:43.032Z,100170
2023-02-22T07:28:32.620Z,100170
2023-02-22T07:34:22.813Z,100168
2023-02-22T07:40:12.891Z,100176
2023-02-22T07:46:04.385Z,100169
2023-02-22T07:51:54.675Z,100157
2023-02-22T07:57:44.025Z,100158
2023-02-22T08:03:35.947Z,100157
2023-02-22T08:09:27.448Z,100154
2023-02-22T08:15:16.567Z,100144
2023-02-22T08:21:07.028Z,100139
2023-02-22T08:26:57.631Z,100133
2023-02-22T08:32:48.978Z,100129
2023-02-22T08:38:40.167Z,100122
2023-02-22T08:44:31.281Z,100115
2023-02-22T08:50:20.946Z,100108
2023-02-22T08:56:12.048Z,100119
2023-02-22T09:02:01.916Z,100117
2023-02-22T09:07:52.855Z,100115
2023-02-22T09:13:44.113Z,100107
2023-02-22T09:19:34.425Z,100098
2023-02-22T09:25:29.107Z,100093
2023-02-22T09:31:25.061Z,100082
2023-02-22T09:37:17.682Z,100080
2023-02-22T09:43:11.071Z,100069
2023-02-22T09:49:04.105Z,100062
2023-02-22T09:54:56.534Z,100062
2023-02-22T10:00:51.881Z,100063
2023-02-22T10:06:45.079Z,100063
2023-02-22T10:12:35.676Z,100065
2023-02-22T10:18:27.084Z,100072
2023-02-22T10:24:19.694Z,100073
2023-02-22T10:30:27.970Z,100082
2023-02-22T10:36:21.817Z,100072
2023-02-22T10:42:12.882Z,100071
2023-02-22T10:48:05.071Z,100060
2023-02-22T10:54:06.414Z,100059
2023-02-22T10:59:56.452Z,100049
2023-02-22T11:05:47.626Z,100045
2023-02-22T11:11:39.917Z,100036
2023-02-22T11:17:33.222Z,100033
2023-02-22T11:23:32.028Z,100026
2023-02-22T11:29:31.055Z,100019
2023-02-22T11:35:33.588Z,100019
2023-02-22T11:41:25.450Z,100016
2023-02-22T11:47:22.798Z,100004
2023-02-22T11:53:18.560Z,99995
2023-02-22T11:59:11.798Z,99989
2023-02-22T12:05:15.688Z,99986
2023-02-22T12:11:08.130Z,99991
2023-02-22T12:17:01.958Z,99979
2023-02-22T12:22:55.234Z,99971
2023-02-22T12:29:17.624Z,99973
2023-02-22T12:35:36.123Z,99967
2023-02-22T12:42:10.431Z,99961
2023-02-22T13:06:05.043Z,99958
2023-02-22T13:12:05.027Z,99953
2023-02-22T13:18:36.826Z,99953
2023-02-22T13:25:09.022Z,99950
2023-02-22T13:31:22.195Z,99940
2023-02-22T13:37:21.094Z,99935
2023-02-22T13:49:54.852Z,99929
2023-02-22T13:55:58.246Z,99925
2023-02-22T14:02:04.864Z,99923
2023-02-22T14:07:56.569Z,99922
2023-02-22T14:13:56.150Z,99915
2023-02-22T14:19:52.199Z,99918
2023-02-22T14:25:46.328Z,99922
2023-02-22T14:31:41.866Z,99921
2023-02-22T14:37:39.152Z,99919
2023-02-22T14:43:42.015Z,99918
2023-02-22T14:49:35.562Z,99916
2023-02-22T14:55:35.112Z,99921
2023-02-22T15:02:12.315Z,99914
2023-02-22T15:08:22.935Z,99911
2023-02-22T15:14:38.257Z,99913
2023-02-22T15:28:04.451Z,99921
2023-02-22T15:33:54.892Z,99923
2023-02-22T15:39:49.613Z,99925
2023-02-22T16:18:07.044Z,99929
2023-02-22T16:24:24.100Z,99930
2023-02-22T16:30:32.368Z,99937
2023-02-22T16:36:39.069Z,99945
2023-02-22T16:48:25.359Z,99950
2023-02-22T16:54:15.364Z,99951
2023-02-22T17:00:06.455Z,99957
2023-02-22T17:05:57.128Z,99957
2023-02-22T17:11:48.759Z,99964
2023-02-22T17:17:41.087Z,99966
2023-02-22T17:23:32.068Z,99976
2023-02-22T17:29:22.568Z,99978
2023-02-22T17:35:15.236Z,99980
2023-02-22T17:41:06.492Z,99983
2023-02-22T17:47:02.693Z,99998
2023-02-22T17:53:04.947Z,100001
2023-02-22T17:59:14.179Z,100002
2023-02-22T18:05:35.363Z,100007
2023-02-22T18:11:33.475Z,100012
2023-02-22T18:17:31.467Z,99996
2023-02-22T18:23:37.086Z,99993
2023-02-22T18:55:51.149Z,100003
2023-02-22T19:01:40.258Z,100003
2023-02-22T19:07:30.776Z,100006
2023-02-22T19:13:24.532Z,100014
2023-02-22T19:32:09.928Z,100017
2023-02-22T19:38:06.312Z,100014
2023-02-22T19:44:10.892Z,100013
2023-02-22T19:50:03.431Z,100023
2023-02-22T19:56:02.432Z,100024
2023-02-22T20:02:00.471Z,100027
2023-02-22T20:07:53.448Z,100030
2023-02-22T20:14:00.871Z,100032
2023-02-22T20:19:58.892Z,100038
2023-02-22T20:26:01.823Z,100048
2023-02-22T20:32:05.081Z,100049
2023-02-22T20:38:05.762Z,100044
2023-02-22T20:50:29.422Z,100048
2023-02-22T20:56:33.132Z,100051
2023-02-22T21:02:27.651Z,100051
2023-02-22T21:08:20.814Z,100055
2023-02-22T21:14:12.403Z,100052
2023-02-22T21:20:06.593Z,100054
2023-02-22T21:26:13.330Z,100057
2023-02-22T21:32:05.217Z,100066
2023-02-22T21:38:03.869Z,100063
2023-02-22T21:43:58.414Z,100064
2023-02-22T21:50:04.047Z,100058
2023-02-22T21:56:03.655Z,100059
2023-02-22T22:02:02.816Z,100065
2023-02-22T22:07:55.131Z,100066
2023-02-22T22:13:46.549Z,100068
2023-02-22T22:19:43.642Z,100064
2023-02-22T22:25:36.473Z,100063
2023-02-22T22:31:36.647Z,100061
2023-02-22T22:37:28.430Z,100057
2023-02-22T22:43:20.315Z,100056
2023-02-22T22:49:15.546Z,100058
2023-02-22T23:02:01.805Z,100058
2023-02-22T23:08:07.658Z,100058
2023-02-22T23:14:10.381Z,100056
2023-02-22T23:20:18.723Z,100057
2023-02-22T23:45:55.233Z,100058
2023-02-22T23:52:02.033Z,100060
2023-02-22T23:58:28.401Z,100062
